sensor_id;sensor_type;location;lat;lon;timestamp;temperature;humidity
32400;DHT22;45045;45.440;9.178;2023-04-25T00:01:45;20.80;84.50
32400;DHT22;45045;45.440;9.178;2023-04-25T00:04:10;20.90;84.40
32400;DHT22;45045;45.440;9.178;2023-04-25T00:06:37;20.80;84.30
32400;DHT22;45045;45.440;9.178;2023-04-25T00:09:05;20.80;84.20
32400;DHT22;45045;45.440;9.178;2023-04-25T00:11:36;20.80;85.50
32400;DHT22;45045;45.440;9.178;2023-04-25T00:14:02;20.70;85.30
32400;DHT22;45045;45.440;9.178;2023-04-25T00:16:28;20.80;86.70
32400;DHT22;45045;45.440;9.178;2023-04-25T00:18:55;20.60;84.30
32400;DHT22;45045;45.440;9.178;2023-04-25T00:21:22;20.40;84.00
32400;DHT22;45045;45.440;9.178;2023-04-25T00:23:49;20.40;84.80
32400;DHT22;45045;45.440;9.178;2023-04-25T00:26:15;20.20;84.50
32400;DHT22;45045;45.440;9.178;2023-04-25T00:28:41;20.30;84.80
32400;DHT22;45045;45.440;9.178;2023-04-25T00:31:06;20.30;84.20
32400;DHT22;45045;45.440;9.178;2023-04-25T00:33:32;20.50;85.20
32400;DHT22;45045;45.440;9.178;2023-04-25T00:35:57;20.60;85.10
32400;DHT22;45045;45.440;9.178;2023-04-25T00:38:23;20.50;85.70
32400;DHT22;45045;45.440;9.178;2023-04-25T00:40:48;20.70;87.10
32400;DHT22;45045;45.440;9.178;2023-04-25T00:43:14;20.60;84.20
32400;DHT22;45045;45.440;9.178;2023-04-25T00:45:40;20.70;83.80
32400;DHT22;45045;45.440;9.178;2023-04-25T00:48:05;20.60;83.30
32400;DHT22;45045;45.440;9.178;2023-04-25T00:50:32;20.70;84.20
32400;DHT22;45045;45.440;9.178;2023-04-25T00:52:58;20.50;84.20
32400;DHT22;45045;45.440;9.178;2023-04-25T00:55:24;20.60;83.50
32400;DHT22;45045;45.440;9.178;2023-04-25T00:57:50;20.50;82.40
32400;DHT22;45045;45.440;9.178;2023-04-25T01:00:15;20.50;83.40
32400;DHT22;45045;45.440;9.178;2023-04-25T01:02:41;20.50;84.00
32400;DHT22;45045;45.440;9.178;2023-04-25T01:05:10;20.70;83.10
32400;DHT22;45045;45.440;9.178;2023-04-25T01:07:35;20.80;84.60
32400;DHT22;45045;45.440;9.178;2023-04-25T01:10:01;21.00;86.50
32400;DHT22;45045;45.440;9.178;2023-04-25T01:12:27;20.90;85.10
32400;DHT22;45045;45.440;9.178;2023-04-25T01:14:53;21.00;85.10
32400;DHT22;45045;45.440;9.178;2023-04-25T01:17:19;21.00;85.20
32400;DHT22;45045;45.440;9.178;2023-04-25T01:19:45;20.80;83.70
32400;DHT22;45045;45.440;9.178;2023-04-25T01:22:13;20.50;82.50
32400;DHT22;45045;45.440;9.178;2023-04-25T01:24:39;20.50;83.00
32400;DHT22;45045;45.440;9.178;2023-04-25T01:27:05;20.20;82.00
32400;DHT22;45045;45.440;9.178;2023-04-25T01:29:32;19.90;83.70
32400;DHT22;45045;45.440;9.178;2023-04-25T01:31:58;19.80;83.90
32400;DHT22;45045;45.440;9.178;2023-04-25T01:34:24;20.10;85.80
32400;DHT22;45045;45.440;9.178;2023-04-25T01:36:50;20.20;83.50
32400;DHT22;45045;45.440;9.178;2023-04-25T01:39:16;19.80;82.90
32400;DHT22;45045;45.440;9.178;2023-04-25T01:41:42;19.80;84.80
32400;DHT22;45045;45.440;9.178;2023-04-25T01:44:07;20.00;86.90
32400;DHT22;45045;45.440;9.178;2023-04-25T01:46:33;20.30;85.80
32400;DHT22;45045;45.440;9.178;2023-04-25T01:48:59;20.40;86.00
32400;DHT22;45045;45.440;9.178;2023-04-25T01:51:24;20.60;86.50
32400;DHT22;45045;45.440;9.178;2023-04-25T01:53:50;20.60;84.40
32400;DHT22;45045;45.440;9.178;2023-04-25T01:56:17;20.30;82.50
32400;DHT22;45045;45.440;9.178;2023-04-25T01:58:42;20.30;85.00
32400;DHT22;45045;45.440;9.178;2023-04-25T02:01:08;20.20;84.00
32400;DHT22;45045;45.440;9.178;2023-04-25T02:03:34;20.00;82.40
32400;DHT22;45045;45.440;9.178;2023-04-25T02:06:00;20.20;85.40
32400;DHT22;45045;45.440;9.178;2023-04-25T02:08:25;20.00;82.60
32400;DHT22;45045;45.440;9.178;2023-04-25T02:10:52;20.10;85.30
32400;DHT22;45045;45.440;9.178;2023-04-25T02:13:17;20.00;82.30
32400;DHT22;45045;45.440;9.178;2023-04-25T02:15:43;19.70;83.70
32400;DHT22;45045;45.440;9.178;2023-04-25T02:18:08;19.80;83.90
32400;DHT22;45045;45.440;9.178;2023-04-25T02:20:35;19.70;84.20
32400;DHT22;45045;45.440;9.178;2023-04-25T02:23:02;19.80;84.20
32400;DHT22;45045;45.440;9.178;2023-04-25T02:25:27;19.90;83.70
32400;DHT22;45045;45.440;9.178;2023-04-25T02:27:53;20.00;84.30
32400;DHT22;45045;45.440;9.178;2023-04-25T02:30:19;20.00;84.00
32400;DHT22;45045;45.440;9.178;2023-04-25T02:32:44;20.20;85.90
32400;DHT22;45045;45.440;9.178;2023-04-25T02:35:10;20.40;85.10
32400;DHT22;45045;45.440;9.178;2023-04-25T02:37:38;20.40;83.20
32400;DHT22;45045;45.440;9.178;2023-04-25T02:40:04;20.20;85.30
32400;DHT22;45045;45.440;9.178;2023-04-25T02:42:30;20.30;87.40
32400;DHT22;45045;45.440;9.178;2023-04-25T02:44:55;20.60;87.50
32400;DHT22;45045;45.440;9.178;2023-04-25T02:47:21;20.40;85.80
32400;DHT22;45045;45.440;9.178;2023-04-25T02:49:46;20.60;86.20
32400;DHT22;45045;45.440;9.178;2023-04-25T02:52:12;20.40;83.10
32400;DHT22;45045;45.440;9.178;2023-04-25T02:54:38;20.40;85.70
32400;DHT22;45045;45.440;9.178;2023-04-25T02:57:04;20.40;86.40
32400;DHT22;45045;45.440;9.178;2023-04-25T02:59:29;20.50;86.80
32400;DHT22;45045;45.440;9.178;2023-04-25T03:01:55;20.20;83.80
32400;DHT22;45045;45.440;9.178;2023-04-25T03:04:20;20.30;86.60
32400;DHT22;45045;45.440;9.178;2023-04-25T03:06:49;20.20;84.00
32400;DHT22;45045;45.440;9.178;2023-04-25T03:09:15;19.90;84.50
32400;DHT22;45045;45.440;9.178;2023-04-25T03:11:40;19.70;86.00
32400;DHT22;45045;45.440;9.178;2023-04-25T03:14:06;19.70;86.20
32400;DHT22;45045;45.440;9.178;2023-04-25T03:16:31;20.00;88.70
32400;DHT22;45045;45.440;9.178;2023-04-25T03:18:57;20.20;87.40
32400;DHT22;45045;45.440;9.178;2023-04-25T03:21:23;20.20;88.00
32400;DHT22;45045;45.440;9.178;2023-04-25T03:23:48;20.30;87.40
32400;DHT22;45045;45.440;9.178;2023-04-25T03:26:14;20.40;87.50
32400;DHT22;45045;45.440;9.178;2023-04-25T03:28:39;20.50;89.70
32400;DHT22;45045;45.440;9.178;2023-04-25T03:31:05;20.60;89.00
32400;DHT22;45045;45.440;9.178;2023-04-25T03:33:31;20.60;88.80
32400;DHT22;45045;45.440;9.178;2023-04-25T03:35:56;20.50;88.60
32400;DHT22;45045;45.440;9.178;2023-04-25T03:38:22;20.40;86.10
32400;DHT22;45045;45.440;9.178;2023-04-25T03:40:48;20.20;88.40
32400;DHT22;45045;45.440;9.178;2023-04-25T03:43:13;20.20;88.30
32400;DHT22;45045;45.440;9.178;2023-04-25T03:45:40;20.10;88.70
32400;DHT22;45045;45.440;9.178;2023-04-25T03:48:05;20.30;89.30
32400;DHT22;45045;45.440;9.178;2023-04-25T03:50:31;20.30;87.60
32400;DHT22;45045;45.440;9.178;2023-04-25T03:52:56;20.10;86.90
32400;DHT22;45045;45.440;9.178;2023-04-25T03:55:22;20.00;87.80
32400;DHT22;45045;45.440;9.178;2023-04-25T03:57:47;20.20;89.70
32400;DHT22;45045;45.440;9.178;2023-04-25T04:00:13;20.10;86.40
32400;DHT22;45045;45.440;9.178;2023-04-25T04:02:39;20.00;87.20
32400;DHT22;45045;45.440;9.178;2023-04-25T04:05:04;20.00;90.00
32400;DHT22;45045;45.440;9.178;2023-04-25T04:07:31;20.20;89.80
32400;DHT22;45045;45.440;9.178;2023-04-25T04:09:58;20.20;89.40
32400;DHT22;45045;45.440;9.178;2023-04-25T04:12:24;20.10;87.50
32400;DHT22;45045;45.440;9.178;2023-04-25T04:14:49;19.40;87.20
32400;DHT22;45045;45.440;9.178;2023-04-25T04:17:15;19.20;88.50
32400;DHT22;45045;45.440;9.178;2023-04-25T04:19:41;18.90;90.10
32400;DHT22;45045;45.440;9.178;2023-04-25T04:22:06;18.90;90.50
32400;DHT22;45045;45.440;9.178;2023-04-25T04:24:32;18.50;90.60
32400;DHT22;45045;45.440;9.178;2023-04-25T04:26:58;18.80;90.80
32400;DHT22;45045;45.440;9.178;2023-04-25T04:29:24;19.00;90.50
32400;DHT22;45045;45.440;9.178;2023-04-25T04:31:50;19.30;90.50
32400;DHT22;45045;45.440;9.178;2023-04-25T04:34:16;19.60;90.70
32400;DHT22;45045;45.440;9.178;2023-04-25T04:36:42;19.50;88.30
32400;DHT22;45045;45.440;9.178;2023-04-25T04:39:07;19.50;89.90
32400;DHT22;45045;45.440;9.178;2023-04-25T04:41:34;19.70;89.90
32400;DHT22;45045;45.440;9.178;2023-04-25T04:44:00;19.90;90.50
32400;DHT22;45045;45.440;9.178;2023-04-25T04:46:26;20.00;90.50
32400;DHT22;45045;45.440;9.178;2023-04-25T04:48:53;20.10;90.50
32400;DHT22;45045;45.440;9.178;2023-04-25T04:51:18;20.20;90.70
32400;DHT22;45045;45.440;9.178;2023-04-25T04:53:44;20.20;90.40
32400;DHT22;45045;45.440;9.178;2023-04-25T04:56:10;20.30;90.60
32400;DHT22;45045;45.440;9.178;2023-04-25T04:58:36;20.30;90.40
32400;DHT22;45045;45.440;9.178;2023-04-25T05:01:02;20.30;90.60
32400;DHT22;45045;45.440;9.178;2023-04-25T05:03:27;20.30;90.50
32400;DHT22;45045;45.440;9.178;2023-04-25T05:05:53;20.30;90.70
32400;DHT22;45045;45.440;9.178;2023-04-25T05:08:18;20.10;90.10
32400;DHT22;45045;45.440;9.178;2023-04-25T05:10:44;20.00;90.00
32400;DHT22;45045;45.440;9.178;2023-04-25T05:13:10;20.10;90.10
32400;DHT22;45045;45.440;9.178;2023-04-25T05:15:35;20.00;90.80
32400;DHT22;45045;45.440;9.178;2023-04-25T05:18:01;20.10;90.30
32400;DHT22;45045;45.440;9.178;2023-04-25T05:20:26;20.00;88.50
32400;DHT22;45045;45.440;9.178;2023-04-25T05:22:52;19.80;87.80
32400;DHT22;45045;45.440;9.178;2023-04-25T05:25:17;19.70;89.20
32400;DHT22;45045;45.440;9.178;2023-04-25T05:27:44;19.50;88.90
32400;DHT22;45045;45.440;9.178;2023-04-25T05:30:09;19.70;90.40
32400;DHT22;45045;45.440;9.178;2023-04-25T05:32:35;19.80;90.40
32400;DHT22;45045;45.440;9.178;2023-04-25T05:35:01;19.60;89.10
32400;DHT22;45045;45.440;9.178;2023-04-25T05:37:26;19.60;88.30
32400;DHT22;45045;45.440;9.178;2023-04-25T05:39:52;19.60;90.40
32400;DHT22;45045;45.440;9.178;2023-04-25T05:42:18;19.70;89.00
32400;DHT22;45045;45.440;9.178;2023-04-25T05:44:44;19.70;91.20
32400;DHT22;45045;45.440;9.178;2023-04-25T05:47:09;19.90;91.30
32400;DHT22;45045;45.440;9.178;2023-04-25T05:49:35;20.00;91.20
32400;DHT22;45045;45.440;9.178;2023-04-25T05:52:00;20.10;90.50
32400;DHT22;45045;45.440;9.178;2023-04-25T05:54:26;20.20;90.70
32400;DHT22;45045;45.440;9.178;2023-04-25T05:56:51;20.10;91.20
32400;DHT22;45045;45.440;9.178;2023-04-25T05:59:17;20.10;90.70
32400;DHT22;45045;45.440;9.178;2023-04-25T06:01:42;20.20;92.00
32400;DHT22;45045;45.440;9.178;2023-04-25T06:04:08;20.00;87.10
32400;DHT22;45045;45.440;9.178;2023-04-25T06:06:33;20.00;90.90
32400;DHT22;45045;45.440;9.178;2023-04-25T06:08:59;20.00;88.60
32400;DHT22;45045;45.440;9.178;2023-04-25T06:11:25;19.90;89.50
32400;DHT22;45045;45.440;9.178;2023-04-25T06:13:51;19.80;89.00
32400;DHT22;45045;45.440;9.178;2023-04-25T06:16:16;19.80;90.70
32400;DHT22;45045;45.440;9.178;2023-04-25T06:18:42;19.60;88.70
32400;DHT22;45045;45.440;9.178;2023-04-25T06:21:07;19.60;90.30
32400;DHT22;45045;45.440;9.178;2023-04-25T06:23:33;19.70;91.20
32400;DHT22;45045;45.440;9.178;2023-04-25T06:25:58;19.70;90.10
32400;DHT22;45045;45.440;9.178;2023-04-25T06:28:26;19.90;90.50
32400;DHT22;45045;45.440;9.178;2023-04-25T06:30:51;19.60;90.50
32400;DHT22;45045;45.440;9.178;2023-04-25T06:33:17;19.50;91.50
32400;DHT22;45045;45.440;9.178;2023-04-25T06:35:42;19.40;90.20
32400;DHT22;45045;45.440;9.178;2023-04-25T06:38:08;19.40;91.30
32400;DHT22;45045;45.440;9.178;2023-04-25T06:40:34;19.60;91.20
32400;DHT22;45045;45.440;9.178;2023-04-25T06:42:59;19.70;90.50
32400;DHT22;45045;45.440;9.178;2023-04-25T06:45:25;19.70;91.20
32400;DHT22;45045;45.440;9.178;2023-04-25T06:47:50;19.70;90.70
32400;DHT22;45045;45.440;9.178;2023-04-25T06:50:16;19.60;91.20
32400;DHT22;45045;45.440;9.178;2023-04-25T06:52:41;19.70;91.40
32400;DHT22;45045;45.440;9.178;2023-04-25T06:55:07;19.90;90.90
32400;DHT22;45045;45.440;9.178;2023-04-25T06:57:33;19.60;90.10
32400;DHT22;45045;45.440;9.178;2023-04-25T06:59:58;19.40;91.00
32400;DHT22;45045;45.440;9.178;2023-04-25T07:02:24;19.30;90.80
32400;DHT22;45045;45.440;9.178;2023-04-25T07:04:50;19.60;91.70
32400;DHT22;45045;45.440;9.178;2023-04-25T07:07:15;19.60;91.20
32400;DHT22;45045;45.440;9.178;2023-04-25T07:09:42;19.60;90.70
32400;DHT22;45045;45.440;9.178;2023-04-25T07:12:07;19.30;91.10
32400;DHT22;45045;45.440;9.178;2023-04-25T07:14:33;19.00;91.90
32400;DHT22;45045;45.440;9.178;2023-04-25T07:16:58;19.00;92.00
32400;DHT22;45045;45.440;9.178;2023-04-25T07:19:24;19.10;92.80
32400;DHT22;45045;45.440;9.178;2023-04-25T07:21:52;19.60;93.00
32400;DHT22;45045;45.440;9.178;2023-04-25T07:24:17;19.80;92.10
32400;DHT22;45045;45.440;9.178;2023-04-25T07:26:43;20.00;92.20
32400;DHT22;45045;45.440;9.178;2023-04-25T07:29:08;20.20;91.80
32400;DHT22;45045;45.440;9.178;2023-04-25T07:31:34;20.30;91.40
32400;DHT22;45045;45.440;9.178;2023-04-25T07:34:00;20.40;91.40
32400;DHT22;45045;45.440;9.178;2023-04-25T07:36:26;20.50;91.20
32400;DHT22;45045;45.440;9.178;2023-04-25T07:38:52;20.60;91.10
32400;DHT22;45045;45.440;9.178;2023-04-25T07:41:17;20.50;90.90
32400;DHT22;45045;45.440;9.178;2023-04-25T07:43:43;20.60;90.90
32400;DHT22;45045;45.440;9.178;2023-04-25T07:46:08;20.60;90.60
32400;DHT22;45045;45.440;9.178;2023-04-25T07:48:34;20.70;90.50
32400;DHT22;45045;45.440;9.178;2023-04-25T07:50:59;20.70;90.40
32400;DHT22;45045;45.440;9.178;2023-04-25T07:53:25;20.80;90.40
32400;DHT22;45045;45.440;9.178;2023-04-25T07:55:51;20.70;90.40
32400;DHT22;45045;45.440;9.178;2023-04-25T07:58:16;20.70;90.30
32400;DHT22;45045;45.440;9.178;2023-04-25T08:00:46;20.80;90.10
32400;DHT22;45045;45.440;9.178;2023-04-25T08:03:12;20.80;90.10
32400;DHT22;45045;45.440;9.178;2023-04-25T08:05:38;20.90;90.30
32400;DHT22;45045;45.440;9.178;2023-04-25T08:08:03;20.90;89.80
32400;DHT22;45045;45.440;9.178;2023-04-25T08:10:31;21.00;89.80
32400;DHT22;45045;45.440;9.178;2023-04-25T08:12:57;21.00;90.10
32400;DHT22;45045;45.440;9.178;2023-04-25T08:15:22;20.90;90.30
32400;DHT22;45045;45.440;9.178;2023-04-25T08:17:48;20.90;88.80
32400;DHT22;45045;45.440;9.178;2023-04-25T08:20:13;20.80;89.70
32400;DHT22;45045;45.440;9.178;2023-04-25T08:22:39;20.90;90.30
32400;DHT22;45045;45.440;9.178;2023-04-25T08:25:05;21.00;90.20
32400;DHT22;45045;45.440;9.178;2023-04-25T08:27:30;21.10;90.10
32400;DHT22;45045;45.440;9.178;2023-04-25T08:29:56;21.20;90.00
32400;DHT22;45045;45.440;9.178;2023-04-25T08:32:23;21.20;89.80
32400;DHT22;45045;45.440;9.178;2023-04-25T08:34:48;21.20;89.60
32400;DHT22;45045;45.440;9.178;2023-04-25T08:37:14;21.20;89.30
32400;DHT22;45045;45.440;9.178;2023-04-25T08:39:39;21.30;89.10
32400;DHT22;45045;45.440;9.178;2023-04-25T08:42:06;21.30;89.00
32400;DHT22;45045;45.440;9.178;2023-04-25T08:44:35;21.30;88.60
32400;DHT22;45045;45.440;9.178;2023-04-25T08:47:04;21.20;88.20
32400;DHT22;45045;45.440;9.178;2023-04-25T08:49:33;21.10;88.10
32400;DHT22;45045;45.440;9.178;2023-04-25T08:51:59;21.20;87.40
32400;DHT22;45045;45.440;9.178;2023-04-25T08:54:25;21.30;86.90
32400;DHT22;45045;45.440;9.178;2023-04-25T08:56:54;21.30;87.20
32400;DHT22;45045;45.440;9.178;2023-04-25T08:59:19;21.30;87.30
32400;DHT22;45045;45.440;9.178;2023-04-25T09:01:46;21.30;83.60
32400;DHT22;45045;45.440;9.178;2023-04-25T09:04:12;21.40;87.90
32400;DHT22;45045;45.440;9.178;2023-04-25T09:06:37;21.40;88.30
32400;DHT22;45045;45.440;9.178;2023-04-25T09:09:03;21.50;88.70
32400;DHT22;45045;45.440;9.178;2023-04-25T09:11:30;21.50;87.30
32400;DHT22;45045;45.440;9.178;2023-04-25T09:19:38;21.50;86.90
32400;DHT22;45045;45.440;9.178;2023-04-25T09:22:05;21.60;86.50
32400;DHT22;45045;45.440;9.178;2023-04-25T09:24:39;21.50;85.80
32400;DHT22;45045;45.440;9.178;2023-04-25T09:27:05;21.50;85.80
32400;DHT22;45045;45.440;9.178;2023-04-25T09:29:31;21.60;85.40
32400;DHT22;45045;45.440;9.178;2023-04-25T09:34:42;21.60;85.00
32400;DHT22;45045;45.440;9.178;2023-04-25T09:37:11;21.50;84.70
32400;DHT22;45045;45.440;9.178;2023-04-25T09:39:37;21.60;84.40
32400;DHT22;45045;45.440;9.178;2023-04-25T09:42:05;21.60;84.70
32400;DHT22;45045;45.440;9.178;2023-04-25T09:44:31;21.70;83.50
32400;DHT22;45045;45.440;9.178;2023-04-25T09:46:57;21.80;82.70
32400;DHT22;45045;45.440;9.178;2023-04-25T09:49:22;21.80;83.00
32400;DHT22;45045;45.440;9.178;2023-04-25T09:51:58;21.90;82.50
32400;DHT22;45045;45.440;9.178;2023-04-25T09:54:26;21.90;82.30
32400;DHT22;45045;45.440;9.178;2023-04-25T09:56:53;21.70;82.30
32400;DHT22;45045;45.440;9.178;2023-04-25T09:59:19;21.70;82.80
32400;DHT22;45045;45.440;9.178;2023-04-25T10:01:45;21.80;82.50
32400;DHT22;45045;45.440;9.178;2023-04-25T10:04:11;21.80;82.10
32400;DHT22;45045;45.440;9.178;2023-04-25T10:06:37;21.90;81.90
32400;DHT22;45045;45.440;9.178;2023-04-25T10:09:03;21.90;82.50
32400;DHT22;45045;45.440;9.178;2023-04-25T10:11:29;21.80;82.80
32400;DHT22;45045;45.440;9.178;2023-04-25T10:13:55;21.90;81.70
32400;DHT22;45045;45.440;9.178;2023-04-25T10:16:21;21.90;82.10
32400;DHT22;45045;45.440;9.178;2023-04-25T10:18:47;22.00;82.30
32400;DHT22;45045;45.440;9.178;2023-04-25T10:21:13;22.00;81.90
32400;DHT22;45045;45.440;9.178;2023-04-25T10:23:40;22.00;81.20
32400;DHT22;45045;45.440;9.178;2023-04-25T10:26:06;22.00;80.90
32400;DHT22;45045;45.440;9.178;2023-04-25T10:31:22;22.30;79.70
32400;DHT22;45045;45.440;9.178;2023-04-25T10:33:48;22.40;78.70
32400;DHT22;45045;45.440;9.178;2023-04-25T10:36:15;22.40;78.70
32400;DHT22;45045;45.440;9.178;2023-04-25T10:38:42;22.50;77.80
32400;DHT22;45045;45.440;9.178;2023-04-25T10:41:09;22.50;77.60
32400;DHT22;45045;45.440;9.178;2023-04-25T10:43:36;22.40;79.10
32400;DHT22;45045;45.440;9.178;2023-04-25T10:46:03;22.40;79.70
32400;DHT22;45045;45.440;9.178;2023-04-25T10:48:37;22.30;80.90
32400;DHT22;45045;45.440;9.178;2023-04-25T10:53:34;22.30;86.30
32400;DHT22;45045;45.440;9.178;2023-04-25T10:56:00;22.40;88.40
32400;DHT22;45045;45.440;9.178;2023-04-25T10:58:26;22.50;87.50
32400;DHT22;45045;45.440;9.178;2023-04-25T11:00:51;22.60;88.70
32400;DHT22;45045;45.440;9.178;2023-04-25T11:03:17;22.70;86.70
32400;DHT22;45045;45.440;9.178;2023-04-25T11:05:46;22.80;85.60
32400;DHT22;45045;45.440;9.178;2023-04-25T11:08:14;22.80;90.50
32400;DHT22;45045;45.440;9.178;2023-04-25T11:10:45;22.60;89.80
32400;DHT22;45045;45.440;9.178;2023-04-25T11:13:12;22.70;90.10
32400;DHT22;45045;45.440;9.178;2023-04-25T11:15:37;22.90;90.60
32400;DHT22;45045;45.440;9.178;2023-04-25T11:18:03;23.10;88.30
32400;DHT22;45045;45.440;9.178;2023-04-25T11:20:29;23.00;88.20
32400;DHT22;45045;45.440;9.178;2023-04-25T11:22:56;23.00;85.60
32400;DHT22;45045;45.440;9.178;2023-04-25T11:25:22;23.00;85.90
32400;DHT22;45045;45.440;9.178;2023-04-25T11:27:51;23.10;84.00
32400;DHT22;45045;45.440;9.178;2023-04-25T11:30:17;23.20;82.90
32400;DHT22;45045;45.440;9.178;2023-04-25T11:32:44;23.20;80.90
32400;DHT22;45045;45.440;9.178;2023-04-25T11:35:09;23.10;78.90
32400;DHT22;45045;45.440;9.178;2023-04-25T11:37:35;23.20;81.60
32400;DHT22;45045;45.440;9.178;2023-04-25T11:40:02;23.20;78.30
32400;DHT22;45045;45.440;9.178;2023-04-25T11:42:28;23.10;75.50
32400;DHT22;45045;45.440;9.178;2023-04-25T11:44:55;23.00;77.40
32400;DHT22;45045;45.440;9.178;2023-04-25T11:47:27;23.00;76.80
32400;DHT22;45045;45.440;9.178;2023-04-25T11:49:52;23.00;76.70
32400;DHT22;45045;45.440;9.178;2023-04-25T11:52:18;23.10;75.90
32400;DHT22;45045;45.440;9.178;2023-04-25T11:54:44;23.20;75.10
32400;DHT22;45045;45.440;9.178;2023-04-25T11:57:10;23.20;74.70
32400;DHT22;45045;45.440;9.178;2023-04-25T11:59:36;23.00;73.60
32400;DHT22;45045;45.440;9.178;2023-04-25T12:02:02;23.00;73.30
32400;DHT22;45045;45.440;9.178;2023-04-25T12:04:29;23.00;73.50
32400;DHT22;45045;45.440;9.178;2023-04-25T12:06:55;23.10;74.50
32400;DHT22;45045;45.440;9.178;2023-04-25T12:09:27;23.20;71.30
32400;DHT22;45045;45.440;9.178;2023-04-25T12:11:57;23.10;72.90
32400;DHT22;45045;45.440;9.178;2023-04-25T12:14:24;23.10;71.40
32400;DHT22;45045;45.440;9.178;2023-04-25T12:16:50;23.10;71.50
32400;DHT22;45045;45.440;9.178;2023-04-25T12:19:19;23.30;72.40
32400;DHT22;45045;45.440;9.178;2023-04-25T12:21:45;23.40;71.60
32400;DHT22;45045;45.440;9.178;2023-04-25T12:24:18;23.40;71.90
32400;DHT22;45045;45.440;9.178;2023-04-25T12:26:49;23.30;71.40
32400;DHT22;45045;45.440;9.178;2023-04-25T12:29:19;23.50;70.20
32400;DHT22;45045;45.440;9.178;2023-04-25T12:31:45;23.70;71.30
32400;DHT22;45045;45.440;9.178;2023-04-25T12:34:11;23.70;67.90
32400;DHT22;45045;45.440;9.178;2023-04-25T12:36:36;23.70;66.90
32400;DHT22;45045;45.440;9.178;2023-04-25T12:39:02;23.70;66.70
32400;DHT22;45045;45.440;9.178;2023-04-25T12:41:29;23.80;66.40
32400;DHT22;45045;45.440;9.178;2023-04-25T12:43:55;23.70;68.60
32400;DHT22;45045;45.440;9.178;2023-04-25T12:46:21;23.80;68.70
32400;DHT22;45045;45.440;9.178;2023-04-25T12:48:48;23.80;70.00
32400;DHT22;45045;45.440;9.178;2023-04-25T12:51:13;23.80;67.40
32400;DHT22;45045;45.440;9.178;2023-04-25T12:53:39;23.90;69.10
32400;DHT22;45045;45.440;9.178;2023-04-25T12:56:06;23.90;67.30
32400;DHT22;45045;45.440;9.178;2023-04-25T12:58:32;23.90;68.90
32400;DHT22;45045;45.440;9.178;2023-04-25T13:00:58;23.80;69.40
32400;DHT22;45045;45.440;9.178;2023-04-25T13:03:24;23.70;69.90
32400;DHT22;45045;45.440;9.178;2023-04-25T13:05:51;23.60;71.40
32400;DHT22;45045;45.440;9.178;2023-04-25T13:08:18;23.60;72.10
32400;DHT22;45045;45.440;9.178;2023-04-25T13:10:43;23.50;71.40
32400;DHT22;45045;45.440;9.178;2023-04-25T13:13:10;23.60;71.60
32400;DHT22;45045;45.440;9.178;2023-04-25T13:15:35;23.70;67.10
32400;DHT22;45045;45.440;9.178;2023-04-25T13:18:03;23.70;69.80
32400;DHT22;45045;45.440;9.178;2023-04-25T13:20:29;23.60;71.60
32400;DHT22;45045;45.440;9.178;2023-04-25T13:22:55;23.50;72.60
32400;DHT22;45045;45.440;9.178;2023-04-25T13:25:24;23.50;72.20
32400;DHT22;45045;45.440;9.178;2023-04-25T13:27:50;23.60;70.80
32400;DHT22;45045;45.440;9.178;2023-04-25T13:30:16;23.40;65.20
32400;DHT22;45045;45.440;9.178;2023-04-25T13:32:42;23.50;65.70
32400;DHT22;45045;45.440;9.178;2023-04-25T13:35:12;23.50;64.90
32400;DHT22;45045;45.440;9.178;2023-04-25T13:37:39;23.40;64.80
32400;DHT22;45045;45.440;9.178;2023-04-25T13:40:09;23.40;67.70
32400;DHT22;45045;45.440;9.178;2023-04-25T13:42:37;23.00;59.10
32400;DHT22;45045;45.440;9.178;2023-04-25T13:45:03;22.60;60.00
32400;DHT22;45045;45.440;9.178;2023-04-25T13:47:29;22.80;66.10
32400;DHT22;45045;45.440;9.178;2023-04-25T13:49:55;23.00;65.10
32400;DHT22;45045;45.440;9.178;2023-04-25T13:52:22;23.20;65.50
32400;DHT22;45045;45.440;9.178;2023-04-25T13:54:49;23.20;63.00
32400;DHT22;45045;45.440;9.178;2023-04-25T13:57:15;23.40;65.50
32400;DHT22;45045;45.440;9.178;2023-04-25T13:59:40;23.40;68.10
32400;DHT22;45045;45.440;9.178;2023-04-25T14:02:06;23.50;68.90
32400;DHT22;45045;45.440;9.178;2023-04-25T14:04:33;23.50;67.10
32400;DHT22;45045;45.440;9.178;2023-04-25T14:07:00;23.60;69.60
32400;DHT22;45045;45.440;9.178;2023-04-25T14:09:30;23.60;69.90
32400;DHT22;45045;45.440;9.178;2023-04-25T14:12:01;23.70;64.10
32400;DHT22;45045;45.440;9.178;2023-04-25T14:14:27;23.60;60.60
32400;DHT22;45045;45.440;9.178;2023-04-25T14:16:56;23.70;62.00
32400;DHT22;45045;45.440;9.178;2023-04-25T14:19:22;23.70;60.70
32400;DHT22;45045;45.440;9.178;2023-04-25T14:21:49;23.70;62.80
32400;DHT22;45045;45.440;9.178;2023-04-25T14:24:25;23.70;62.10
32400;DHT22;45045;45.440;9.178;2023-04-25T14:26:51;23.70;64.10
32400;DHT22;45045;45.440;9.178;2023-04-25T14:29:20;23.80;64.80
32400;DHT22;45045;45.440;9.178;2023-04-25T14:31:46;23.80;61.80
32400;DHT22;45045;45.440;9.178;2023-04-25T14:34:12;23.80;61.50
32400;DHT22;45045;45.440;9.178;2023-04-25T14:36:38;23.80;65.00
32400;DHT22;45045;45.440;9.178;2023-04-25T14:39:07;23.80;65.60
32400;DHT22;45045;45.440;9.178;2023-04-25T14:41:34;23.80;66.20
32400;DHT22;45045;45.440;9.178;2023-04-25T14:44:01;23.70;67.30
32400;DHT22;45045;45.440;9.178;2023-04-25T14:46:27;23.50;57.50
32400;DHT22;45045;45.440;9.178;2023-04-25T14:48:53;23.50;61.70
32400;DHT22;45045;45.440;9.178;2023-04-25T14:51:21;23.50;64.80
32400;DHT22;45045;45.440;9.178;2023-04-25T14:53:47;23.50;65.70
32400;DHT22;45045;45.440;9.178;2023-04-25T14:56:13;23.50;63.90
32400;DHT22;45045;45.440;9.178;2023-04-25T14:58:41;23.60;65.00
32400;DHT22;45045;45.440;9.178;2023-04-25T15:01:07;23.60;64.80
32400;DHT22;45045;45.440;9.178;2023-04-25T15:03:33;23.40;58.90
32400;DHT22;45045;45.440;9.178;2023-04-25T15:06:01;23.30;62.00
32400;DHT22;45045;45.440;9.178;2023-04-25T15:08:27;23.50;62.20
32400;DHT22;45045;45.440;9.178;2023-04-25T15:10:56;23.50;63.00
32400;DHT22;45045;45.440;9.178;2023-04-25T15:13:22;23.50;62.00
32400;DHT22;45045;45.440;9.178;2023-04-25T15:15:48;23.40;61.00
32400;DHT22;45045;45.440;9.178;2023-04-25T15:18:20;23.40;60.50
32400;DHT22;45045;45.440;9.178;2023-04-25T15:20:48;23.20;60.00
32400;DHT22;45045;45.440;9.178;2023-04-25T15:23:14;23.30;61.70
32400;DHT22;45045;45.440;9.178;2023-04-25T15:25:40;23.20;60.40
32400;DHT22;45045;45.440;9.178;2023-04-25T15:28:09;23.10;59.10
32400;DHT22;45045;45.440;9.178;2023-04-25T15:30:35;23.00;61.60
32400;DHT22;45045;45.440;9.178;2023-04-25T15:33:00;23.00;63.70
32400;DHT22;45045;45.440;9.178;2023-04-25T15:35:26;23.00;61.10
32400;DHT22;45045;45.440;9.178;2023-04-25T15:37:52;22.80;63.20